createdAt,value
2023-04-18T00:01:30.544Z,77.00
2023-04-18T00:03:32.061Z,76.50
2023-04-18T00:05:33.633Z,76.35
2023-04-18T00:07:35.577Z,76.79
2023-04-18T00:09:37.218Z,76.69
2023-04-18T00:11:38.750Z,77.91
2023-04-18T00:13:40.569Z,78.39
2023-04-18T00:15:43.799Z,77.94
2023-04-18T00:17:45.266Z,77.41
2023-04-18T00:19:47.031Z,78.04
2023-04-18T00:21:49.456Z,78.54
2023-04-18T00:23:51.694Z,79.09
2023-04-18T00:25:53.226Z,79.37
2023-04-18T00:27:54.640Z,78.74
2023-04-18T00:29:56.034Z,78.02
2023-04-18T00:31:58.041Z,78.00
2023-04-18T00:33:59.490Z,78.62
2023-04-18T00:36:00.895Z,79.87
2023-04-18T00:38:02.421Z,78.88
2023-04-18T00:40:05.482Z,79.05
2023-04-18T00:42:06.894Z,79.19
2023-04-18T00:44:08.340Z,78.47
2023-04-18T00:46:10.902Z,78.91
2023-04-18T00:48:12.373Z,79.00
2023-04-18T00:50:14.984Z,79.17
2023-04-18T00:52:18.425Z,78.69
2023-04-18T00:54:20.199Z,78.37
2023-04-18T00:56:23.683Z,78.59
2023-04-18T00:58:26.235Z,78.73
2023-04-18T01:00:27.681Z,79.63
2023-04-18T01:02:30.498Z,79.03
2023-04-18T01:04:32.602Z,80.02
2023-04-18T01:06:34.722Z,79.42
2023-04-18T01:08:36.518Z,79.35
2023-04-18T01:10:38.024Z,79.45
2023-04-18T01:12:39.588Z,80.03
2023-04-18T01:14:42.990Z,80.29
2023-04-18T01:16:44.375Z,80.80
2023-04-18T01:18:46.273Z,80.42
2023-04-18T01:20:49.733Z,80.34
2023-04-18T01:22:51.758Z,80.45
2023-04-18T01:24:53.184Z,80.12
2023-04-18T01:26:54.570Z,80.76
2023-04-18T01:28:56.064Z,80.33
2023-04-18T01:30:57.466Z,80.29
2023-04-18T01:33:01.483Z,79.99
2023-04-18T01:35:03.774Z,80.05
2023-04-18T01:37:05.223Z,80.38
2023-04-18T01:39:07.171Z,79.87
2023-04-18T01:41:08.642Z,79.17
2023-04-18T01:43:10.021Z,80.37
2023-04-18T01:45:12.290Z,80.31
2023-04-18T01:47:13.730Z,79.84
2023-04-18T01:49:16.148Z,80.23
2023-04-18T01:51:17.561Z,79.53
2023-04-18T01:53:18.951Z,79.17
2023-04-18T01:55:20.516Z,79.36
2023-04-18T01:57:21.932Z,79.02
2023-04-18T01:59:23.338Z,79.38
2023-04-18T02:01:24.822Z,79.48
2023-04-18T02:03:26.534Z,78.83
2023-04-18T02:05:28.101Z,79.27
2023-04-18T02:07:29.633Z,79.99
2023-04-18T02:09:31.066Z,79.79
2023-04-18T02:11:32.526Z,79.61
2023-04-18T02:13:33.970Z,79.60
2023-04-18T02:15:35.711Z,80.13
2023-04-18T02:17:37.857Z,79.79
2023-04-18T02:19:39.360Z,79.38
2023-04-18T02:21:41.871Z,79.97
2023-04-18T02:23:43.262Z,79.10
2023-04-18T02:25:44.689Z,80.04
2023-04-18T02:27:46.078Z,79.10
2023-04-18T02:29:47.506Z,79.76
2023-04-18T02:31:48.969Z,80.07
2023-04-18T02:33:50.389Z,79.19
2023-04-18T02:35:51.803Z,79.66
2023-04-18T02:37:53.297Z,80.15
2023-04-18T02:39:54.746Z,80.24
2023-04-18T02:41:56.161Z,80.66
2023-04-18T02:43:58.857Z,80.16
2023-04-18T02:46:00.349Z,80.92
2023-04-18T02:48:01.869Z,80.65
2023-04-18T02:50:04.062Z,81.39
2023-04-18T02:52:05.503Z,80.73
2023-04-18T02:54:06.912Z,80.85
2023-04-18T02:56:08.422Z,81.42
2023-04-18T02:58:09.950Z,80.91
2023-04-18T03:00:12.062Z,81.36
2023-04-18T03:02:13.591Z,80.86
2023-04-18T03:04:15.126Z,80.58
2023-04-18T03:06:16.742Z,80.67
2023-04-18T03:08:18.204Z,81.58
2023-04-18T03:10:19.613Z,80.74
2023-04-18T03:12:21.080Z,80.90
2023-04-18T03:14:22.467Z,80.28
2023-04-18T03:16:27.159Z,80.79
2023-04-18T03:18:28.687Z,80.56
2023-04-18T03:20:30.111Z,80.72
2023-04-18T03:22:31.858Z,80.52
2023-04-18T03:24:33.242Z,80.21
2023-04-18T03:26:34.682Z,81.75
2023-04-18T03:28:36.191Z,81.18
2023-04-18T03:30:37.616Z,80.90
2023-04-18T03:32:39.113Z,81.89
2023-04-18T03:34:40.715Z,81.86
2023-04-18T03:36:42.233Z,82.00
2023-04-18T03:38:43.861Z,81.14
2023-04-18T03:40:46.210Z,81.22
2023-04-18T03:42:47.590Z,81.23
2023-04-18T03:44:49.031Z,81.37
2023-04-18T03:46:50.644Z,80.98
2023-04-18T03:48:52.079Z,80.59
2023-04-18T03:50:53.473Z,81.09
2023-04-18T03:52:55.015Z,81.06
2023-04-18T03:54:56.454Z,81.59
2023-04-18T03:56:59.319Z,82.11
2023-04-18T03:59:00.827Z,80.88
2023-04-18T04:01:02.327Z,81.14
2023-04-18T04:03:04.012Z,81.21
2023-04-18T04:05:05.818Z,81.14
2023-04-18T04:07:07.286Z,80.90
2023-04-18T04:09:08.719Z,80.93
2023-04-18T04:11:10.141Z,80.04
2023-04-18T04:13:11.558Z,80.60
2023-04-18T04:15:13.034Z,80.71
2023-04-18T04:17:14.459Z,80.55
2023-04-18T04:19:15.943Z,81.25
2023-04-18T04:21:18.441Z,81.01
2023-04-18T04:23:22.609Z,80.16
2023-04-18T04:25:28.417Z,80.30
2023-04-18T04:27:29.885Z,80.15
2023-04-18T04:29:31.604Z,80.98
2023-04-18T04:31:33.123Z,79.67
2023-04-18T04:33:35.561Z,80.67
2023-04-18T04:35:37.047Z,80.13
2023-04-18T04:37:41.076Z,81.01
2023-04-18T04:39:42.466Z,80.68
2023-04-18T04:41:43.846Z,80.34
2023-04-18T04:43:46.591Z,80.54
2023-04-18T04:45:49.444Z,80.47
2023-04-18T04:47:51.017Z,80.42
2023-04-18T04:49:52.430Z,79.64
2023-04-18T04:51:53.890Z,80.46
2023-04-18T04:53:55.509Z,80.03
2023-04-18T04:55:57.937Z,80.42
2023-04-18T04:57:59.370Z,80.18
2023-04-18T05:00:00.748Z,80.82
2023-04-18T05:02:02.351Z,79.81
2023-04-18T05:04:04.198Z,79.84
2023-04-18T05:06:06.028Z,80.61
2023-04-18T05:08:07.507Z,80.11
2023-04-18T05:10:09.425Z,80.11
2023-04-18T05:12:10.847Z,80.71
2023-04-18T05:14:12.915Z,81.48
2023-04-18T05:16:14.757Z,82.36
2023-04-18T05:18:16.318Z,80.73
2023-04-18T05:20:17.752Z,80.20
2023-04-18T05:22:19.208Z,80.33
2023-04-18T05:24:20.780Z,79.91
2023-04-18T05:26:22.597Z,80.72
2023-04-18T05:28:26.284Z,81.33
2023-04-18T05:30:27.756Z,80.89
2023-04-18T05:32:29.253Z,79.76
2023-04-18T05:34:31.701Z,79.81
2023-04-18T05:36:33.196Z,80.75
2023-04-18T05:38:34.688Z,79.91
2023-04-18T05:40:36.208Z,79.84
2023-04-18T05:42:37.673Z,80.63
2023-04-18T05:44:39.090Z,79.74
2023-04-18T05:46:40.715Z,79.62
2023-04-18T05:48:42.198Z,79.51
2023-04-18T05:50:43.561Z,80.62
2023-04-18T05:52:44.961Z,78.90
2023-04-18T05:54:46.404Z,78.90
2023-04-18T05:56:48.233Z,79.63
2023-04-18T05:58:51.257Z,79.74
2023-04-18T06:00:53.316Z,79.41
2023-04-18T06:02:54.879Z,79.00
2023-04-18T06:04:56.934Z,79.30
2023-04-18T06:06:58.936Z,78.97
2023-04-18T06:09:00.429Z,79.70
2023-04-18T06:11:02.009Z,79.80
2023-04-18T06:13:03.450Z,79.44
2023-04-18T06:15:05.851Z,78.85
2023-04-18T06:17:07.382Z,79.60
2023-04-18T06:19:08.793Z,79.52
2023-04-18T06:21:10.288Z,80.12
2023-04-18T06:23:11.712Z,80.06
2023-04-18T06:25:13.165Z,78.90
2023-04-18T06:27:27.909Z,79.33
2023-04-18T06:29:33.168Z,80.90
2023-04-18T06:31:34.644Z,80.03
2023-04-18T06:33:37.566Z,79.10
2023-04-18T06:35:39.104Z,79.65
2023-04-18T06:37:43.973Z,79.07
2023-04-18T06:39:46.002Z,79.31
2023-04-18T06:41:48.791Z,78.96
2023-04-18T06:44:02.894Z,80.67
2023-04-18T06:46:06.013Z,79.14
2023-04-18T06:48:08.972Z,79.45
2023-04-18T06:50:10.755Z,80.29
2023-04-18T06:52:12.191Z,79.34
2023-04-18T06:54:13.901Z,79.36
2023-04-18T06:56:15.772Z,79.54
2023-04-18T06:58:17.424Z,79.41
2023-04-18T07:00:19.023Z,78.92
2023-04-18T07:02:20.451Z,78.99
2023-04-18T07:04:22.074Z,79.42
2023-04-18T07:06:23.654Z,78.78
2023-04-18T07:08:25.163Z,79.78
2023-04-18T07:10:26.589Z,79.12
2023-04-18T07:12:28.075Z,79.32
2023-04-18T07:14:30.142Z,78.94
2023-04-18T07:16:32.775Z,78.54
2023-04-18T07:18:37.874Z,79.16
2023-04-18T07:20:40.301Z,78.50
2023-04-18T07:22:41.810Z,79.43
2023-04-18T07:24:44.030Z,78.59
2023-04-18T07:26:45.692Z,78.35
2023-04-18T07:28:47.115Z,78.48
2023-04-18T07:30:48.680Z,78.33
2023-04-18T07:32:50.464Z,78.51
2023-04-18T07:34:52.753Z,78.33
2023-04-18T07:36:54.218Z,77.84
2023-04-18T07:38:55.635Z,78.87
2023-04-18T07:41:01.578Z,77.59
2023-04-18T07:43:03.374Z,76.90
2023-04-18T07:45:05.382Z,77.16
2023-04-18T07:47:11.244Z,77.65
2023-04-18T07:49:12.990Z,77.85
2023-04-18T07:51:14.767Z,77.58
2023-04-18T07:53:16.924Z,77.27
2023-04-18T07:55:18.663Z,77.52
2023-04-18T07:57:20.690Z,78.07
2023-04-18T07:59:22.395Z,77.46
2023-04-18T08:01:24.790Z,77.24
2023-04-18T08:03:27.754Z,78.75
2023-04-18T08:05:29.567Z,78.02
2023-04-18T08:07:31.051Z,78.62
2023-04-18T08:09:32.519Z,78.13
2023-04-18T08:11:34.512Z,76.84
2023-04-18T08:13:35.917Z,77.76
2023-04-18T08:15:37.302Z,77.59
2023-04-18T08:17:38.993Z,77.88
2023-04-18T08:19:40.539Z,77.74
2023-04-18T08:21:41.940Z,77.52
2023-04-18T08:23:43.337Z,78.22
2023-04-18T08:25:44.813Z,77.61
2023-04-18T08:27:46.236Z,78.39
2023-04-18T08:29:47.628Z,78.70
2023-04-18T08:31:49.085Z,79.13
2023-04-18T08:33:50.648Z,78.14
2023-04-18T08:35:52.133Z,79.11
2023-04-18T08:37:53.559Z,79.17
2023-04-18T08:39:54.986Z,78.91
2023-04-18T08:42:00.509Z,78.67
2023-04-18T08:44:02.072Z,79.93
2023-04-18T08:46:03.569Z,79.86
2023-04-18T08:48:06.177Z,79.75
2023-04-18T08:50:09.586Z,79.74
2023-04-18T08:52:13.789Z,79.85
2023-04-18T08:54:15.624Z,78.87
2023-04-18T08:56:17.028Z,78.27
2023-04-18T08:58:25.476Z,78.74
2023-04-18T09:00:27.488Z,78.76
2023-04-18T09:02:43.559Z,79.19
2023-04-18T09:04:48.505Z,79.45
2023-04-18T09:06:53.165Z,78.78
2023-04-18T09:08:59.130Z,79.82
2023-04-18T09:11:20.764Z,79.37
2023-04-18T09:13:39.347Z,78.97
2023-04-18T09:15:40.888Z,80.29
2023-04-18T09:17:50.681Z,79.10
2023-04-18T09:19:54.508Z,79.19
2023-04-18T09:22:00.868Z,80.02
2023-04-18T09:24:17.607Z,78.78
2023-04-18T09:26:33.848Z,78.93
2023-04-18T09:28:37.390Z,79.87
2023-04-18T09:30:40.681Z,79.50
2023-04-18T09:32:42.213Z,78.78
2023-04-18T09:34:43.681Z,78.38
2023-04-18T09:36:45.271Z,78.26
2023-04-18T09:38:48.023Z,78.95
2023-04-18T09:41:07.198Z,78.94
2023-04-18T09:43:20.433Z,77.96
2023-04-18T09:45:23.631Z,77.47
2023-04-18T09:47:26.945Z,76.98
2023-04-18T09:49:29.046Z,77.52
2023-04-18T09:51:31.733Z,77.11
2023-04-18T09:53:37.909Z,76.27
2023-04-18T09:55:40.152Z,76.79
2023-04-18T09:57:45.030Z,76.23
2023-04-18T10:00:17.656Z,75.89
2023-04-18T10:02:22.591Z,75.21
2023-04-18T10:04:24.765Z,74.64
2023-04-18T10:06:28.515Z,74.32
2023-04-18T10:08:30.366Z,75.21
2023-04-18T10:10:32.758Z,74.09
2023-04-18T10:12:35.879Z,74.64
2023-04-18T10:14:39.203Z,73.93
2023-04-18T10:16:42.271Z,73.46
2023-04-18T10:18:43.758Z,72.85
2023-04-18T10:20:46.890Z,71.79
2023-04-18T10:22:49.349Z,71.20
2023-04-18T10:24:53.882Z,70.11
2023-04-18T10:26:55.963Z,70.59
2023-04-18T10:28:58.990Z,70.41
2023-04-18T10:31:05.463Z,69.81
2023-04-18T10:33:31.022Z,69.54
2023-04-18T10:35:35.821Z,68.51
2023-04-18T10:37:58.859Z,68.38
2023-04-18T10:40:05.854Z,69.93
2023-04-18T10:42:07.225Z,69.45
2023-04-18T10:44:09.127Z,69.89
2023-04-18T10:46:24.017Z,70.30
2023-04-18T10:48:32.812Z,70.25
2023-04-18T10:50:34.340Z,70.88
2023-04-18T10:52:36.080Z,70.24
2023-04-18T10:54:40.611Z,70.32
2023-04-18T10:56:52.245Z,70.66
2023-04-18T10:58:53.888Z,70.06
2023-04-18T11:00:55.432Z,69.17
2023-04-18T11:02:57.610Z,69.18
2023-04-18T11:05:00.663Z,69.62
2023-04-18T11:07:04.936Z,68.63
2023-04-18T11:09:13.869Z,67.26
2023-04-18T11:11:16.002Z,67.58
2023-04-18T11:13:17.373Z,66.80
2023-04-18T11:15:22.167Z,66.11
2023-04-18T11:17:35.672Z,66.00
2023-04-18T11:19:37.121Z,65.63
2023-04-18T11:21:38.590Z,66.48
2023-04-18T11:23:41.152Z,66.49
2023-04-18T11:25:44.723Z,67.41
2023-04-18T11:27:48.215Z,66.35
2023-04-18T11:29:53.132Z,66.71
2023-04-18T11:31:58.318Z,66.60
2023-04-18T11:34:01.973Z,65.01
2023-04-18T11:36:04.750Z,65.28
2023-04-18T11:38:07.457Z,65.25
2023-04-18T11:40:09.888Z,64.48
2023-04-18T11:42:11.511Z,65.56
2023-04-18T11:44:13.133Z,64.22
2023-04-18T11:46:14.724Z,63.71
2023-04-18T11:48:17.004Z,62.39
2023-04-18T11:50:18.454Z,63.21
2023-04-18T11:52:19.848Z,63.24
2023-04-18T11:54:44.504Z,62.02
2023-04-18T11:56:48.533Z,61.88
2023-04-18T11:58:50.023Z,61.87
2023-04-18T12:00:51.438Z,61.50
2023-04-18T12:02:53.681Z,61.57
2023-04-18T12:04:59.529Z,61.76
2023-04-18T12:07:02.513Z,62.18
2023-04-18T12:09:05.505Z,62.47
2023-04-18T12:11:07.067Z,62.51
2023-04-18T12:13:08.880Z,60.99
2023-04-18T12:15:15.093Z,61.03
2023-04-18T12:17:16.643Z,61.51
2023-04-18T12:19:20.444Z,61.28
2023-04-18T12:21:21.879Z,60.69
2023-04-18T12:23:35.570Z,60.18
2023-04-18T12:25:37.248Z,59.68
2023-04-18T12:27:48.538Z,59.92
2023-04-18T12:29:49.920Z,59.60
2023-04-18T12:31:51.563Z,60.07
2023-04-18T12:33:54.361Z,61.25
2023-04-18T12:35:56.065Z,60.10
2023-04-18T12:38:00.039Z,59.43
2023-04-18T12:40:01.468Z,59.07
2023-04-18T12:42:02.897Z,59.27
2023-04-18T12:44:04.588Z,59.61
2023-04-18T12:46:06.021Z,58.25
2023-04-18T12:48:07.576Z,59.99
2023-04-18T12:50:11.641Z,60.47
2023-04-18T12:52:13.122Z,59.30
2023-04-18T12:54:14.753Z,60.22
2023-04-18T12:56:16.271Z,59.89
2023-04-18T12:58:18.701Z,59.08
2023-04-18T13:00:23.290Z,60.17
2023-04-18T13:02:24.956Z,59.15
2023-04-18T13:04:26.724Z,59.34
2023-04-18T13:06:28.287Z,58.51
2023-04-18T13:08:29.833Z,57.27
2023-04-18T13:10:31.541Z,57.00
2023-04-18T13:12:33.026Z,55.45
2023-04-18T13:14:34.498Z,55.31
2023-04-18T13:16:36.120Z,55.10
2023-04-18T13:18:37.760Z,56.36
2023-04-18T13:20:39.142Z,55.71
2023-04-18T13:22:41.831Z,55.22
2023-04-18T13:24:43.286Z,54.17
2023-04-18T13:26:44.686Z,54.48
2023-04-18T13:28:46.451Z,54.37
2023-04-18T13:30:47.851Z,55.29
2023-04-18T13:32:49.385Z,55.04
2023-04-18T13:34:53.831Z,53.72
2023-04-18T13:36:56.712Z,55.26
2023-04-18T13:39:00.928Z,55.17
2023-04-18T13:41:12.967Z,54.88
2023-04-18T13:43:15.388Z,53.34
2023-04-18T13:45:16.890Z,53.26
2023-04-18T13:47:18.858Z,53.90
2023-04-18T13:49:20.437Z,53.29
2023-04-18T13:51:21.896Z,53.68
2023-04-18T13:53:23.315Z,53.64
2023-04-18T13:55:25.106Z,53.48
2023-04-18T13:57:26.498Z,52.20
2023-04-18T13:59:28.580Z,52.82
2023-04-18T14:01:30.026Z,54.19
2023-04-18T14:03:31.909Z,54.03
2023-04-18T14:05:34.193Z,52.51
2023-04-18T14:07:36.253Z,53.62
2023-04-18T14:09:37.757Z,53.04
2023-04-18T14:11:39.306Z,55.23
2023-04-18T14:13:40.954Z,55.27
2023-04-18T14:15:42.443Z,54.10
2023-04-18T14:17:45.690Z,53.81
2023-04-18T14:19:48.557Z,53.22
2023-04-18T14:21:49.986Z,52.43
2023-04-18T14:23:52.399Z,52.70
2023-04-18T14:25:54.111Z,53.77
2023-04-18T14:28:09.764Z,52.72
2023-04-18T14:30:11.838Z,53.55
2023-04-18T14:32:13.288Z,54.39
2023-04-18T14:34:14.690Z,54.42
2023-04-18T14:36:16.868Z,55.92
2023-04-18T14:38:18.975Z,54.88
2023-04-18T14:40:22.586Z,53.65
2023-04-18T14:42:24.015Z,52.02
2023-04-18T14:44:25.422Z,51.26
2023-04-18T14:46:28.259Z,51.88
2023-04-18T14:48:29.909Z,51.76
2023-04-18T14:50:31.591Z,52.27
2023-04-18T14:52:33.008Z,49.75
2023-04-18T14:54:34.476Z,51.02
2023-04-18T14:56:36.106Z,49.52
2023-04-18T14:58:37.580Z,48.34
2023-04-18T15:00:39.202Z,47.72
2023-04-18T15:02:41.243Z,47.70
2023-04-18T15:04:42.866Z,48.80
2023-04-18T15:06:44.364Z,41.80
2023-04-18T15:08:46.268Z,41.08
2023-04-18T15:10:47.710Z,41.59
2023-04-18T15:12:50.956Z,40.55
2023-04-18T15:14:53.771Z,36.98
2023-04-18T15:16:55.330Z,37.73
2023-04-18T15:18:56.960Z,32.46
2023-04-18T15:21:01.340Z,30.15
2023-04-18T15:23:03.140Z,30.37
2023-04-18T15:25:05.527Z,27.71
2023-04-18T15:27:07.716Z,25.90
2023-04-18T15:29:09.087Z,24.48
2023-04-18T15:31:10.912Z,24.30
2023-04-18T15:33:13.810Z,27.08
2023-04-18T15:35:15.264Z,24.46
2023-04-18T15:37:16.777Z,22.99
2023-04-18T15:39:21.828Z,23.38
2023-04-18T15:41:23.252Z,22.19
2023-04-18T15:43:24.639Z,24.59
2023-04-18T15:45:26.242Z,22.95
2023-04-18T15:47:28.078Z,20.74
2023-04-18T15:49:29.548Z,21.24
2023-04-18T15:51:31.037Z,22.83
2023-04-18T15:53:32.744Z,23.56
2023-04-18T15:55:34.279Z,21.88
2023-04-18T15:57:35.913Z,23.17
2023-04-18T15:59:37.417Z,20.34
2023-04-18T16:01:38.939Z,22.02
2023-04-18T16:03:40.902Z,21.17
2023-04-18T16:05:42.788Z,21.11
2023-04-18T16:07:44.416Z,19.95
2023-04-18T16:09:45.855Z,19.96
2023-04-18T16:11:47.319Z,18.90
2023-04-18T16:13:48.934Z,20.25
2023-04-18T16:15:50.525Z,21.08
2023-04-18T16:17:52.017Z,20.16
2023-04-18T16:19:54.195Z,22.27
2023-04-18T16:21:55.584Z,21.96
2023-04-18T16:23:57.028Z,21.16
2023-04-18T16:25:58.785Z,21.73
2023-04-18T16:28:00.446Z,20.85
2023-04-18T16:30:02.924Z,20.70
2023-04-18T16:32:06.516Z,21.10
2023-04-18T16:34:07.929Z,20.14
2023-04-18T16:36:09.480Z,21.27
2023-04-18T16:38:10.901Z,21.08
2023-04-18T16:40:12.456Z,22.13
2023-04-18T16:42:15.643Z,22.43
2023-04-18T16:44:17.401Z,24.42
2023-04-18T16:46:19.103Z,24.56
2023-04-18T16:48:20.590Z,27.06
2023-04-18T16:50:22.671Z,30.64
2023-04-18T16:52:24.438Z,31.23
2023-04-18T16:54:25.953Z,32.06
2023-04-18T16:56:27.375Z,34.26
2023-04-18T16:58:28.806Z,36.21
2023-04-18T17:00:30.179Z,37.18
2023-04-18T17:02:31.839Z,38.04
2023-04-18T17:04:33.558Z,38.74
2023-04-18T17:06:35.249Z,40.68
2023-04-18T17:08:36.694Z,42.01
2023-04-18T17:10:38.166Z,42.78
2023-04-18T17:12:39.723Z,43.52
2023-04-18T17:14:41.113Z,43.55
2023-04-18T17:16:42.627Z,45.12
2023-04-18T17:18:44.120Z,44.65
2023-04-18T17:20:45.614Z,45.85
2023-04-18T17:22:46.999Z,47.08
2023-04-18T17:24:48.425Z,47.56
2023-04-18T17:26:50.130Z,48.64
2023-04-18T17:28:51.589Z,48.82
2023-04-18T17:30:53.075Z,50.10
2023-04-18T17:32:54.590Z,51.75
2023-04-18T17:34:56.134Z,50.97
2023-04-18T17:36:57.549Z,50.81
2023-04-18T17:39:06.201Z,52.86
2023-04-18T17:41:07.788Z,52.40
2023-04-18T17:43:10.604Z,52.33
2023-04-18T17:45:12.078Z,54.18
2023-04-18T17:47:13.650Z,54.72
2023-04-18T17:49:15.191Z,54.67
2023-04-18T17:51:19.167Z,55.81
2023-04-18T17:53:20.835Z,55.71
2023-04-18T17:55:22.352Z,55.80
2023-04-18T17:57:25.972Z,56.56
2023-04-18T17:59:28.148Z,58.28
2023-04-18T18:01:30.480Z,58.28
2023-04-18T18:03:32.092Z,57.68
2023-04-18T18:05:33.586Z,58.12
2023-04-18T18:07:37.341Z,57.96
2023-04-18T18:09:39.327Z,59.30
2023-04-18T18:11:40.863Z,59.48
2023-04-18T18:13:42.369Z,59.23
2023-04-18T18:15:43.838Z,59.60
2023-04-18T18:17:47.544Z,60.53
2023-04-18T18:19:49.032Z,60.16
2023-04-18T18:21:50.538Z,60.77
2023-04-18T18:23:51.958Z,61.46
2023-04-18T18:25:53.520Z,62.12
2023-04-18T18:27:54.952Z,62.72
2023-04-18T18:29:57.274Z,63.39
2023-04-18T18:31:58.677Z,63.97
2023-04-18T18:34:00.260Z,62.88
2023-04-18T18:36:01.748Z,63.51
2023-04-18T18:38:03.247Z,63.48
2023-04-18T18:40:05.201Z,64.88
2023-04-18T18:42:06.690Z,63.94
2023-04-18T18:44:08.126Z,63.90
2023-04-18T18:46:09.649Z,64.31
2023-04-18T18:48:11.505Z,64.86
2023-04-18T18:50:13.165Z,65.45
2023-04-18T18:52:14.712Z,66.40
2023-04-18T18:54:16.285Z,65.38
2023-04-18T18:56:18.113Z,64.92
2023-04-18T18:58:19.608Z,65.93
2023-04-18T19:00:21.197Z,66.48
2023-04-18T19:02:23.155Z,67.50
2023-04-18T19:04:24.843Z,66.71
2023-04-18T19:06:27.506Z,67.03
2023-04-18T19:08:29.137Z,66.47
2023-04-18T19:10:30.825Z,66.58
2023-04-18T19:12:32.283Z,67.29
2023-04-18T19:14:34.948Z,67.51
2023-04-18T19:16:36.478Z,68.29
2023-04-18T19:18:38.194Z,68.26
2023-04-18T19:20:41.593Z,69.13
2023-04-18T19:22:42.983Z,68.26
2023-04-18T19:24:44.433Z,68.85
2023-04-18T19:26:45.824Z,69.15
2023-04-18T19:28:47.322Z,68.96
2023-04-18T19:30:49.159Z,68.85
2023-04-18T19:32:50.968Z,69.98
2023-04-18T19:34:52.470Z,69.64
2023-04-18T19:36:53.878Z,70.62
2023-04-18T19:38:55.342Z,71.34
2023-04-18T19:40:56.994Z,70.59
2023-04-18T19:42:58.396Z,70.67
2023-04-18T19:45:00.266Z,72.18
2023-04-18T19:47:01.744Z,71.51
2023-04-18T19:49:03.432Z,72.17
2023-04-18T19:51:04.959Z,72.38
2023-04-18T19:53:06.667Z,71.92
2023-04-18T19:55:08.595Z,71.49
2023-04-18T19:57:10.477Z,71.27
2023-04-18T19:59:12.536Z,71.62
2023-04-18T20:01:15.643Z,71.71
2023-04-18T20:03:17.314Z,71.12
2023-04-18T20:05:19.088Z,71.55
2023-04-18T20:07:20.599Z,71.39
2023-04-18T20:09:22.050Z,71.75
2023-04-18T20:11:24.391Z,71.02
2023-04-18T20:13:25.804Z,72.26
2023-04-18T20:17:32.733Z,71.39
2023-04-18T20:19:34.208Z,70.97
2023-04-18T20:21:35.666Z,71.57
2023-04-18T20:23:37.353Z,70.92
2023-04-18T20:25:38.827Z,71.87
2023-04-18T20:27:40.278Z,72.63
2023-04-18T20:29:42.014Z,72.38
2023-04-18T20:31:43.427Z,72.15
2023-04-18T20:33:44.857Z,72.48
2023-04-18T20:35:46.818Z,71.87
2023-04-18T20:37:49.733Z,73.05
2023-04-18T20:39:56.472Z,72.23
2023-04-18T20:41:59.799Z,72.56
2023-04-18T20:44:05.019Z,72.07
2023-04-18T20:46:07.325Z,71.56
2023-04-18T20:48:09.707Z,72.30
2023-04-18T20:50:11.235Z,72.26
2023-04-18T20:52:14.430Z,71.73
2023-04-18T20:54:16.239Z,72.71
2023-04-18T20:56:17.827Z,72.51
2023-04-18T20:58:19.326Z,73.08
2023-04-18T21:00:20.943Z,71.70
2023-04-18T21:02:22.529Z,71.84
2023-04-18T21:04:24.912Z,72.65
2023-04-18T21:06:28.247Z,71.30
2023-04-18T21:08:29.770Z,72.93
2023-04-18T21:10:31.256Z,72.34
2023-04-18T21:12:32.632Z,72.63
2023-04-18T21:14:34.106Z,71.47
2023-04-18T21:16:36.735Z,72.58
2023-04-18T21:18:38.226Z,72.69
2023-04-18T21:20:39.630Z,73.07
2023-04-18T21:22:41.062Z,72.35
2023-04-18T21:24:43.466Z,72.90
2023-04-18T21:26:45.791Z,73.18
2023-04-18T21:28:57.364Z,73.43
2023-04-18T21:30:58.743Z,72.43
2023-04-18T21:33:00.341Z,73.32
2023-04-18T21:35:02.420Z,73.79
2023-04-18T21:37:03.921Z,72.94
2023-04-18T21:39:05.449Z,71.53
2023-04-18T21:41:07.092Z,73.59
2023-04-18T21:43:08.662Z,72.64
2023-04-18T21:45:10.940Z,72.27
2023-04-18T21:47:12.334Z,73.56
2023-04-18T21:49:13.791Z,73.22
2023-04-18T21:53:22.645Z,73.68
2023-04-18T21:55:24.056Z,74.33
2023-04-18T21:57:25.447Z,74.43
2023-04-18T21:59:26.844Z,73.59
2023-04-18T22:01:28.295Z,74.26
2023-04-18T22:03:31.407Z,73.42
2023-04-18T22:05:33.504Z,72.88
2023-04-18T22:07:40.835Z,74.18
2023-04-18T22:09:51.795Z,74.72
2023-04-18T22:11:56.851Z,73.73
2023-04-18T22:14:00.403Z,74.24
2023-04-18T22:16:03.039Z,74.22
2023-04-18T22:18:08.398Z,74.21
2023-04-18T22:20:11.147Z,75.27
2023-04-18T22:22:12.554Z,75.76
2023-04-18T22:24:14.378Z,75.04
2023-04-18T22:26:16.000Z,73.96
2023-04-18T22:28:17.375Z,74.69
2023-04-18T22:30:24.602Z,74.94
2023-04-18T22:32:26.002Z,75.01
2023-04-18T22:34:27.408Z,75.29
2023-04-18T22:36:28.798Z,74.80
2023-04-18T22:38:30.250Z,75.26
2023-04-18T22:40:31.676Z,74.76
2023-04-18T22:42:33.735Z,76.02
2023-04-18T22:44:35.319Z,75.58
2023-04-18T22:46:38.578Z,75.51
2023-04-18T22:48:40.392Z,75.55
2023-04-18T22:50:46.145Z,75.08
2023-04-18T22:52:47.871Z,76.29
2023-04-18T22:54:49.299Z,75.96
2023-04-18T22:56:50.808Z,75.71
2023-04-18T22:58:52.215Z,75.95
2023-04-18T23:00:53.698Z,76.72
2023-04-18T23:02:55.433Z,76.00
2023-04-18T23:04:58.921Z,75.88
2023-04-18T23:07:00.325Z,77.54
2023-04-18T23:09:02.928Z,76.26
2023-04-18T23:11:04.324Z,75.49
2023-04-18T23:13:05.823Z,76.71
2023-04-18T23:15:07.932Z,77.45
2023-04-18T23:17:09.312Z,76.43
2023-04-18T23:19:10.762Z,76.99
2023-04-18T23:21:12.425Z,76.38
2023-04-18T23:23:13.791Z,77.31
2023-04-18T23:25:15.220Z,77.42
2023-04-18T23:27:16.652Z,77.07
2023-04-18T23:29:18.228Z,77.93
2023-04-18T23:31:19.829Z,78.63
2023-04-18T23:33:21.314Z,78.77
2023-04-18T23:35:22.736Z,78.22
2023-04-18T23:37:24.157Z,79.08
2023-04-18T23:39:26.468Z,79.13
2023-04-18T23:41:27.893Z,79.18
2023-04-18T23:43:29.354Z,78.92
2023-04-18T23:45:30.982Z,79.22
2023-04-18T23:47:32.466Z,78.45
2023-04-18T23:49:34.118Z,78.80
2023-04-18T23:51:35.526Z,80.57
2023-04-18T23:53:36.901Z,81.00
2023-04-18T23:55:38.427Z,80.41
2023-04-18T23:57:39.802Z,80.54
2023-04-18T23:59:41.236Z,81.78
